createdAt,value
2023-04-09T00:00:02.519Z,24.40
2023-04-09T00:03:00.473Z,15.60
2023-04-09T00:05:28.749Z,12.80
2023-04-09T00:07:57.351Z,14.60
2023-04-09T00:10:25.466Z,13.80
2023-04-09T00:12:53.599Z,18.20
2023-04-09T00:15:30.753Z,10.40
2023-04-09T00:18:00.568Z,12.20
2023-04-09T00:20:28.797Z,15.90
2023-04-09T00:22:58.274Z,21.70
2023-04-09T00:25:26.518Z,19.70
2023-04-09T00:27:59.240Z,12.00
2023-04-09T00:30:31.165Z,18.10
2023-04-09T00:32:59.329Z,17.50
2023-04-09T00:35:27.603Z,20.30
2023-04-09T00:37:56.122Z,18.20
2023-04-09T00:40:24.308Z,12.50
2023-04-09T00:42:52.567Z,10.50
2023-04-09T00:45:20.779Z,17.60
2023-04-09T00:47:49.050Z,12.30
2023-04-09T00:50:17.272Z,11.50
2023-04-09T00:52:45.989Z,11.10
2023-04-09T00:55:14.218Z,13.90
2023-04-09T00:57:42.597Z,11.80
2023-04-09T01:00:13.196Z,19.70
2023-04-09T01:02:42.060Z,21.60
2023-04-09T01:05:12.915Z,18.50
2023-04-09T01:08:16.973Z,22.00
2023-04-09T01:11:03.016Z,21.10
2023-04-09T01:13:48.127Z,13.30
2023-04-09T01:16:20.237Z,21.30
2023-04-09T01:19:12.031Z,18.90
2023-04-09T01:21:42.234Z,19.50
2023-04-09T01:24:29.830Z,18.40
2023-04-09T01:27:01.697Z,20.80
2023-04-09T01:29:45.757Z,17.50
2023-04-09T01:32:18.846Z,9.60
2023-04-09T01:34:48.452Z,17.20
2023-04-09T01:37:18.323Z,11.50
2023-04-09T01:39:47.364Z,16.70
2023-04-09T01:42:16.411Z,15.70
2023-04-09T01:44:46.550Z,18.40
2023-04-09T01:47:14.861Z,18.80
2023-04-09T01:49:43.880Z,11.90
2023-04-09T01:52:12.639Z,20.20
2023-04-09T01:54:42.568Z,19.20
2023-04-09T01:57:10.804Z,17.80
2023-04-09T01:59:38.930Z,13.00
2023-04-09T02:02:12.535Z,17.10
2023-04-09T02:04:46.158Z,9.80
2023-04-09T02:07:31.032Z,11.20
2023-04-09T02:10:01.544Z,12.60
2023-04-09T02:12:32.109Z,10.70
2023-04-09T02:15:02.403Z,20.00
2023-04-09T02:17:30.638Z,19.00
2023-04-09T02:19:58.907Z,14.60
2023-04-09T02:22:26.994Z,7.90
2023-04-09T02:24:55.216Z,16.10
2023-04-09T02:27:23.314Z,13.20
2023-04-09T02:29:51.411Z,10.10
2023-04-09T02:32:20.236Z,17.90
2023-04-09T02:34:48.692Z,16.90
2023-04-09T02:37:18.376Z,14.90
2023-04-09T02:39:48.695Z,18.90
2023-04-09T02:42:16.849Z,13.60
2023-04-09T02:44:44.939Z,9.20
2023-04-09T02:47:13.715Z,10.50
2023-04-09T02:49:41.926Z,19.10
2023-04-09T02:52:11.496Z,19.40
2023-04-09T02:54:39.723Z,18.50
2023-04-09T02:57:07.953Z,19.40
2023-04-09T02:59:36.264Z,19.40
2023-04-09T03:02:04.690Z,19.90
2023-04-09T03:04:33.108Z,19.60
2023-04-09T03:07:02.109Z,11.80
2023-04-09T03:09:30.871Z,10.00
2023-04-09T03:11:58.984Z,19.40
2023-04-09T03:14:27.070Z,19.00
2023-04-09T03:16:55.785Z,14.20
2023-04-09T03:19:23.970Z,10.80
2023-04-09T03:21:52.225Z,17.30
2023-04-09T03:24:23.146Z,20.20
2023-04-09T03:26:52.005Z,17.20
2023-04-09T03:29:20.280Z,19.70
2023-04-09T03:31:48.712Z,18.30
2023-04-09T03:34:16.935Z,12.00
2023-04-09T03:36:46.101Z,17.00
2023-04-09T03:39:24.292Z,11.00
2023-04-09T03:41:53.263Z,12.00
2023-04-09T03:44:21.639Z,20.00
2023-04-09T03:47:08.750Z,21.30
2023-04-09T03:49:37.327Z,22.20
2023-04-09T03:52:12.591Z,23.40
2023-04-09T03:54:44.456Z,20.50
2023-04-09T03:57:16.513Z,22.10
2023-04-09T03:59:45.582Z,17.00
2023-04-09T04:02:14.563Z,18.60
2023-04-09T04:04:46.433Z,20.10
2023-04-09T04:07:14.785Z,14.40
2023-04-09T04:09:49.966Z,20.10
2023-04-09T04:12:19.780Z,15.70
2023-04-09T04:14:56.005Z,15.70
2023-04-09T04:17:33.035Z,13.40
2023-04-09T04:20:01.693Z,8.80
2023-04-09T04:22:30.902Z,7.70
2023-04-09T04:25:00.050Z,14.90
2023-04-09T04:27:28.248Z,15.90
2023-04-09T04:29:58.915Z,15.40
2023-04-09T04:32:53.277Z,15.30
2023-04-09T04:35:22.203Z,15.60
2023-04-09T04:37:52.650Z,10.70
2023-04-09T04:40:21.388Z,9.10
2023-04-09T04:42:52.650Z,18.30
2023-04-09T04:45:20.976Z,15.20
2023-04-09T04:47:54.442Z,14.30
2023-04-09T04:50:22.639Z,8.90
2023-04-09T04:53:03.554Z,16.00
2023-04-09T04:55:39.739Z,14.50
2023-04-09T04:58:08.633Z,9.40
2023-04-09T05:00:44.021Z,16.40
2023-04-09T05:03:13.118Z,16.20
2023-04-09T05:05:54.946Z,15.50
2023-04-09T05:08:23.774Z,15.90
2023-04-09T05:10:56.264Z,16.30
2023-04-09T05:13:27.617Z,15.70
2023-04-09T05:15:56.472Z,11.40
2023-04-09T05:18:25.170Z,13.20
2023-04-09T05:20:53.292Z,18.50
2023-04-09T05:23:21.843Z,15.80
2023-04-09T05:25:51.126Z,17.60
2023-04-09T05:28:57.556Z,16.50
2023-04-09T05:31:26.765Z,14.50
2023-04-09T05:36:37.299Z,15.90
2023-04-09T05:39:05.586Z,18.60
2023-04-09T05:41:33.814Z,18.60
2023-04-09T05:46:47.354Z,18.40
2023-04-09T05:49:17.913Z,17.40
2023-04-09T05:51:47.325Z,19.50
2023-04-09T05:54:18.140Z,17.80
2023-04-09T05:56:46.362Z,12.30
2023-04-09T05:59:14.650Z,19.80
2023-04-09T06:01:42.937Z,18.60
2023-04-09T06:04:11.359Z,13.60
2023-04-09T06:06:40.202Z,18.20
2023-04-09T06:09:08.378Z,10.10
2023-04-09T06:11:38.933Z,14.50
2023-04-09T06:14:07.190Z,10.70
2023-04-09T06:16:36.206Z,13.70
2023-04-09T06:19:04.404Z,13.60
2023-04-09T06:21:33.432Z,9.90
2023-04-09T06:24:01.874Z,8.00
2023-04-09T06:26:30.031Z,8.20
2023-04-09T06:28:58.130Z,11.20
2023-04-09T06:31:26.562Z,9.00
2023-04-09T06:33:55.404Z,8.30
2023-04-09T06:36:23.793Z,7.80
2023-04-09T06:38:51.848Z,9.60
2023-04-09T06:41:23.882Z,12.40
2023-04-09T06:43:52.745Z,15.20
2023-04-09T06:46:21.707Z,12.80
2023-04-09T06:48:51.901Z,14.70
2023-04-09T06:51:20.066Z,12.90
2023-04-09T06:53:48.515Z,9.10
2023-04-09T06:56:16.879Z,14.70
2023-04-09T06:58:45.136Z,12.30
2023-04-09T07:01:13.492Z,15.20
2023-04-09T07:03:43.811Z,12.90
2023-04-09T07:06:12.083Z,12.00
2023-04-09T07:08:40.146Z,9.20
2023-04-09T07:11:08.630Z,9.30
2023-04-09T07:13:36.849Z,9.80
2023-04-09T07:16:05.315Z,11.20
2023-04-09T07:18:33.450Z,11.40
2023-04-09T07:21:02.160Z,13.40
2023-04-09T07:23:36.390Z,13.00
2023-04-09T07:26:05.533Z,10.60
2023-04-09T07:28:35.002Z,13.00
2023-04-09T07:31:05.584Z,10.20
2023-04-09T07:33:34.015Z,12.60
2023-04-09T07:36:02.543Z,8.40
2023-04-09T07:38:30.814Z,12.00
2023-04-09T07:40:59.178Z,13.10
2023-04-09T07:43:27.486Z,10.60
2023-04-09T07:45:56.044Z,10.90
2023-04-09T07:48:24.247Z,8.50
2023-04-09T07:50:52.918Z,9.60
2023-04-09T07:53:21.466Z,11.20
2023-04-09T07:55:51.948Z,12.00
2023-04-09T07:58:20.112Z,13.00
2023-04-09T08:00:48.673Z,13.40
2023-04-09T08:03:17.797Z,10.10
2023-04-09T08:05:46.861Z,12.20
2023-04-09T08:08:15.081Z,11.80
2023-04-09T08:10:43.324Z,9.10
2023-04-09T08:13:12.120Z,13.90
2023-04-09T08:15:40.668Z,9.70
2023-04-09T08:18:09.470Z,10.00
2023-04-09T08:20:37.975Z,9.60
2023-04-09T08:23:06.132Z,11.40
2023-04-09T08:25:34.348Z,9.10
2023-04-09T08:28:02.491Z,13.00
2023-04-09T08:30:30.761Z,12.00
2023-04-09T08:32:59.145Z,9.20
2023-04-09T08:35:28.596Z,11.80
2023-04-09T08:37:56.977Z,12.20
2023-04-09T08:40:25.400Z,10.80
2023-04-09T08:42:58.322Z,9.30
2023-04-09T08:45:26.479Z,9.90
2023-04-09T08:47:54.816Z,11.10
2023-04-09T08:50:23.131Z,10.80
2023-04-09T08:52:51.297Z,8.90
2023-04-09T08:55:19.552Z,10.00
2023-04-09T08:57:47.848Z,10.10
2023-04-09T09:00:15.957Z,10.40
2023-04-09T09:03:04.816Z,10.50
2023-04-09T09:05:41.436Z,11.70
2023-04-09T09:08:12.055Z,13.90
2023-04-09T09:10:45.669Z,14.10
2023-04-09T09:13:27.617Z,15.90
2023-04-09T09:16:12.970Z,11.50
2023-04-09T09:18:43.314Z,14.20
2023-04-09T09:21:16.582Z,13.60
2023-04-09T09:23:46.145Z,9.10
2023-04-09T09:26:18.640Z,9.90
2023-04-09T09:31:18.921Z,11.70
2023-04-09T09:33:48.484Z,9.20
2023-04-09T09:36:31.803Z,12.20
2023-04-09T09:39:10.192Z,10.20
2023-04-09T09:41:40.027Z,9.70
2023-04-09T09:44:10.464Z,12.40
2023-04-09T09:46:41.468Z,13.40
2023-04-09T09:49:10.069Z,9.80
2023-04-09T09:51:40.873Z,9.60
2023-04-09T09:54:10.835Z,8.70
2023-04-09T09:56:39.831Z,13.20
2023-04-09T09:59:22.102Z,9.50
2023-04-09T10:02:03.821Z,10.50
2023-04-09T10:04:38.449Z,9.10
2023-04-09T10:07:08.381Z,13.00
2023-04-09T10:09:38.595Z,11.10
2023-04-09T10:12:09.067Z,11.60
2023-04-09T10:14:38.342Z,9.70
2023-04-09T10:17:06.931Z,9.80
2023-04-09T10:19:41.604Z,8.30
2023-04-09T10:22:17.143Z,10.30
2023-04-09T10:24:47.296Z,12.30
2023-04-09T10:27:17.484Z,8.90
2023-04-09T10:29:47.660Z,7.90
2023-04-09T10:32:21.793Z,8.90
2023-04-09T10:34:50.869Z,12.00
2023-04-09T10:37:25.268Z,7.80
2023-04-09T10:39:53.938Z,11.30
2023-04-09T10:42:40.793Z,10.90
2023-04-09T10:45:14.678Z,8.20
2023-04-09T10:47:44.251Z,10.20
2023-04-09T10:50:25.815Z,8.00
2023-04-09T10:52:59.764Z,7.00
2023-04-09T10:55:42.567Z,8.50
2023-04-09T10:58:13.548Z,9.60
2023-04-09T11:00:43.992Z,8.10
2023-04-09T11:03:24.031Z,8.80
2023-04-09T11:06:06.235Z,10.70
2023-04-09T11:08:35.524Z,9.70
2023-04-09T11:11:04.179Z,8.20
2023-04-09T11:13:34.193Z,8.40
2023-04-09T11:16:07.153Z,10.30
2023-04-09T11:18:37.213Z,9.40
2023-04-09T11:21:05.960Z,8.10
2023-04-09T11:23:34.629Z,8.50
2023-04-09T11:26:02.918Z,7.90
2023-04-09T11:28:31.182Z,8.70
2023-04-09T11:30:59.445Z,9.70
2023-04-09T11:33:34.393Z,9.40
2023-04-09T11:36:06.129Z,8.70
2023-04-09T11:38:34.417Z,7.40
2023-04-09T11:41:02.457Z,7.40
2023-04-09T11:43:30.886Z,6.80
2023-04-09T11:45:59.656Z,8.30
2023-04-09T11:48:28.015Z,9.50
2023-04-09T11:50:57.373Z,8.00
2023-04-09T11:53:31.304Z,7.10
2023-04-09T11:55:59.738Z,7.00
2023-04-09T11:58:28.350Z,7.50
2023-04-09T12:00:59.295Z,10.70
2023-04-09T12:03:35.000Z,6.80
2023-04-09T12:06:05.794Z,8.20
2023-04-09T12:08:37.626Z,8.80
2023-04-09T12:11:13.599Z,7.70
2023-04-09T12:13:44.937Z,7.10
2023-04-09T12:16:14.002Z,7.40
2023-04-09T12:18:42.407Z,8.40
2023-04-09T12:21:10.901Z,5.90
2023-04-09T12:23:39.042Z,6.80
2023-04-09T12:26:07.219Z,8.80
2023-04-09T12:28:35.544Z,9.60
2023-04-09T12:31:03.811Z,9.80
2023-04-09T12:33:32.579Z,10.40
2023-04-09T12:36:00.893Z,8.80
2023-04-09T12:38:29.080Z,9.80
2023-04-09T12:40:57.312Z,6.30
2023-04-09T12:43:25.478Z,8.40
2023-04-09T12:45:53.597Z,8.70
2023-04-09T12:48:21.807Z,9.80
2023-04-09T12:50:49.947Z,9.70
2023-04-09T12:53:18.532Z,7.50
2023-04-09T12:55:47.241Z,6.80
2023-04-09T12:58:15.518Z,8.80
2023-04-09T13:00:43.807Z,6.40
2023-04-09T13:03:12.312Z,9.60
2023-04-09T13:05:40.724Z,9.70
2023-04-09T13:08:08.927Z,6.90
2023-04-09T13:10:37.022Z,10.10
2023-04-09T13:13:06.279Z,9.80
2023-04-09T13:15:34.544Z,8.50
2023-04-09T13:18:03.300Z,6.80
2023-04-09T13:20:31.793Z,5.30
2023-04-09T13:22:59.920Z,5.90
2023-04-09T13:25:28.200Z,7.70
2023-04-09T13:27:56.398Z,6.80
2023-04-09T13:30:24.674Z,6.40
2023-04-09T13:32:53.004Z,5.40
2023-04-09T13:35:21.216Z,6.20
2023-04-09T13:37:49.378Z,6.40
2023-04-09T13:40:17.848Z,5.70
2023-04-09T13:42:46.030Z,8.10
2023-04-09T13:45:14.182Z,5.30
2023-04-09T13:47:43.213Z,6.00
2023-04-09T13:50:13.257Z,5.40
2023-04-09T13:52:41.422Z,7.90
2023-04-09T13:55:09.844Z,6.60
2023-04-09T13:57:38.034Z,8.60
2023-04-09T14:00:08.239Z,6.30
2023-04-09T14:02:36.496Z,6.90
2023-04-09T14:05:05.090Z,6.40
2023-04-09T14:07:33.328Z,5.80
2023-04-09T14:10:02.386Z,7.50
2023-04-09T14:12:30.568Z,15.30
2023-04-09T14:14:58.702Z,12.50
2023-04-09T14:17:26.894Z,13.40
2023-04-09T14:19:55.068Z,7.30
2023-04-09T14:22:23.212Z,7.60
2023-04-09T14:24:51.664Z,6.40
2023-04-09T14:27:19.732Z,7.40
2023-04-09T14:29:48.113Z,6.90
2023-04-09T14:32:17.302Z,6.40
2023-04-09T14:34:45.726Z,8.30
2023-04-09T14:37:14.016Z,7.40
2023-04-09T14:39:42.165Z,10.90
2023-04-09T14:42:10.524Z,7.00
2023-04-09T14:44:39.218Z,5.70
2023-04-09T14:47:07.406Z,6.90
2023-04-09T14:49:35.659Z,7.90
2023-04-09T14:52:03.948Z,6.00
2023-04-09T14:54:32.224Z,6.00
2023-04-09T14:57:02.732Z,8.00
2023-04-09T14:59:31.192Z,6.40
2023-04-09T15:01:59.719Z,6.40
2023-04-09T15:04:28.180Z,7.10
2023-04-09T15:06:56.782Z,7.40
2023-04-09T15:09:25.087Z,8.90
2023-04-09T15:11:54.506Z,7.30
2023-04-09T15:14:23.959Z,7.50
2023-04-09T15:16:55.898Z,7.20
2023-04-09T15:19:24.199Z,8.40
2023-04-09T15:21:52.457Z,7.10
2023-04-09T15:24:20.647Z,16.30
2023-04-09T15:26:49.840Z,9.50
2023-04-09T15:29:18.141Z,12.00
2023-04-09T15:31:46.405Z,6.90
2023-04-09T15:34:14.644Z,10.30
2023-04-09T15:36:42.864Z,11.60
2023-04-09T15:39:12.312Z,10.40
2023-04-09T15:41:40.689Z,8.40
2023-04-09T15:44:08.843Z,6.90
2023-04-09T15:46:40.071Z,9.10
2023-04-09T15:49:08.331Z,5.40
2023-04-09T15:51:36.546Z,8.10
2023-04-09T15:54:04.803Z,7.20
2023-04-09T15:56:33.221Z,6.80
2023-04-09T15:59:05.200Z,6.50
2023-04-09T16:01:34.352Z,8.50
2023-04-09T16:04:03.722Z,6.10
2023-04-09T16:06:32.017Z,6.30
2023-04-09T16:09:00.225Z,5.70
2023-04-09T16:11:28.538Z,8.20
2023-04-09T16:13:57.355Z,7.50
2023-04-09T16:16:25.556Z,7.70
2023-04-09T16:18:54.776Z,5.70
2023-04-09T16:21:23.275Z,8.10
2023-04-09T16:23:51.791Z,5.50
2023-04-09T16:26:19.993Z,8.90
2023-04-09T16:28:50.084Z,8.20
2023-04-09T16:31:18.511Z,10.20
2023-04-09T16:33:48.278Z,8.80
2023-04-09T16:36:16.582Z,9.10
2023-04-09T16:38:44.820Z,12.00
2023-04-09T16:41:13.035Z,11.80
2023-04-09T16:43:41.200Z,7.40
2023-04-09T16:46:10.887Z,8.80
2023-04-09T16:48:41.886Z,11.30
2023-04-09T16:51:10.430Z,9.60
2023-04-09T16:53:39.029Z,7.20
2023-04-09T16:56:08.022Z,7.30
2023-04-09T16:58:36.215Z,14.30
2023-04-09T17:01:05.485Z,13.20
2023-04-09T17:03:33.668Z,11.00
2023-04-09T17:06:02.764Z,9.10
2023-04-09T17:08:31.024Z,10.80
2023-04-09T17:11:02.453Z,13.90
2023-04-09T17:13:33.001Z,25.80
2023-04-09T17:16:02.764Z,12.60
2023-04-09T17:18:31.013Z,15.50
2023-04-09T17:20:59.909Z,11.00
2023-04-09T17:23:28.135Z,15.10
2023-04-09T17:25:57.024Z,15.60
2023-04-09T17:28:25.172Z,13.90
2023-04-09T17:30:53.382Z,11.90
2023-04-09T17:33:22.040Z,14.00
2023-04-09T17:35:50.377Z,15.10
2023-04-09T17:38:21.504Z,13.90
2023-04-09T17:40:50.726Z,14.50
2023-04-09T17:43:19.050Z,13.50
2023-04-09T17:45:47.105Z,17.30
2023-04-09T17:48:15.823Z,13.60
2023-04-09T17:50:43.922Z,10.70
2023-04-09T17:53:12.119Z,17.80
2023-04-09T17:55:46.703Z,17.70
2023-04-09T17:58:15.539Z,13.60
2023-04-09T18:00:44.390Z,15.30
2023-04-09T18:03:12.851Z,15.60
2023-04-09T18:05:41.422Z,17.10
2023-04-09T18:08:10.174Z,13.40
2023-04-09T18:10:38.370Z,18.00
2023-04-09T18:13:06.551Z,12.70
2023-04-09T18:15:34.846Z,11.00
2023-04-09T18:18:03.186Z,18.40
2023-04-09T18:20:31.337Z,17.70
2023-04-09T18:22:59.483Z,21.50
2023-04-09T18:25:29.922Z,17.80
2023-04-09T18:27:58.150Z,19.50
2023-04-09T18:30:26.494Z,16.10
2023-04-09T18:32:56.073Z,12.10
2023-04-09T18:35:25.326Z,13.00
2023-04-09T18:37:54.616Z,12.20
2023-04-09T18:40:22.913Z,19.10
2023-04-09T18:42:54.282Z,12.90
2023-04-09T18:45:22.768Z,17.20
2023-04-09T18:47:51.020Z,13.80
2023-04-09T18:50:19.336Z,20.50
2023-04-09T18:52:49.574Z,18.50
2023-04-09T18:55:20.473Z,16.90
2023-04-09T18:57:48.616Z,11.70
2023-04-09T19:00:17.765Z,18.00
2023-04-09T19:02:46.665Z,14.60
2023-04-09T19:05:14.874Z,20.10
2023-04-09T19:07:43.522Z,21.50
2023-04-09T19:10:13.222Z,16.60
2023-04-09T19:12:49.784Z,16.80
2023-04-09T19:15:18.016Z,20.70
2023-04-09T19:17:46.466Z,20.70
2023-04-09T19:20:18.615Z,18.00
2023-04-09T19:22:51.041Z,21.30
2023-04-09T19:25:20.504Z,14.50
2023-04-09T19:27:58.718Z,21.10
2023-04-09T19:30:47.170Z,10.10
2023-04-09T19:33:15.709Z,15.20
2023-04-09T19:35:54.820Z,14.20
2023-04-09T19:38:23.556Z,14.90
2023-04-09T19:40:52.465Z,12.10
2023-04-09T19:43:21.184Z,23.70
2023-04-09T19:45:49.588Z,32.60
2023-04-09T19:48:18.609Z,23.00
2023-04-09T19:50:48.584Z,20.30
2023-04-09T19:53:31.259Z,24.30
2023-04-09T19:56:04.544Z,24.10
2023-04-09T19:59:50.673Z,14.90
2023-04-09T20:02:20.486Z,23.70
2023-04-09T20:04:52.454Z,14.30
2023-04-09T20:07:22.382Z,19.40
2023-04-09T20:09:51.769Z,13.10
2023-04-09T20:12:21.881Z,20.00
2023-04-09T20:14:58.985Z,15.60
2023-04-09T20:17:27.377Z,18.00
2023-04-09T20:19:56.139Z,27.90
2023-04-09T20:22:24.524Z,26.00
2023-04-09T20:24:52.804Z,26.40
2023-04-09T20:27:22.167Z,26.80
2023-04-09T20:29:50.284Z,26.90
2023-04-09T20:32:18.812Z,19.30
2023-04-09T20:34:47.303Z,24.80
2023-04-09T20:37:15.576Z,23.00
2023-04-09T20:39:43.772Z,14.70
2023-04-09T20:42:11.947Z,19.20
2023-04-09T20:44:40.368Z,24.30
2023-04-09T20:47:08.438Z,18.30
2023-04-09T20:49:36.850Z,21.40
2023-04-09T20:52:04.925Z,16.00
2023-04-09T20:54:33.100Z,20.60
2023-04-09T20:57:01.898Z,20.80
2023-04-09T20:59:30.082Z,14.30
2023-04-09T21:01:58.474Z,15.00
2023-04-09T21:04:27.673Z,15.60
2023-04-09T21:06:56.039Z,27.00
2023-04-09T21:09:25.240Z,24.00
2023-04-09T21:11:53.898Z,17.10
2023-04-09T21:14:22.049Z,16.30
2023-04-09T21:16:51.954Z,19.50
2023-04-09T21:19:20.463Z,16.30
2023-04-09T21:21:48.802Z,15.20
2023-04-09T21:24:18.454Z,14.50
2023-04-09T21:26:51.745Z,14.40
2023-04-09T21:29:26.179Z,17.40
2023-04-09T21:31:54.682Z,12.90
2023-04-09T21:34:22.900Z,25.40
2023-04-09T21:36:51.371Z,18.90
2023-04-09T21:39:19.709Z,14.40
2023-04-09T21:41:47.938Z,24.10
2023-04-09T21:44:16.190Z,21.40
2023-04-09T21:46:44.353Z,12.90
2023-04-09T21:49:13.540Z,23.40
2023-04-09T21:51:41.804Z,12.00
2023-04-09T21:54:10.357Z,11.90
2023-04-09T21:56:38.784Z,24.30
2023-04-09T21:59:07.285Z,16.00
2023-04-09T22:01:35.664Z,19.40
2023-04-09T22:04:04.582Z,20.90
2023-04-09T22:06:33.031Z,20.90
2023-04-09T22:09:02.140Z,20.80
2023-04-09T22:11:31.206Z,22.00
2023-04-09T22:13:59.330Z,22.70
2023-04-09T22:16:27.862Z,16.20
2023-04-09T22:18:56.898Z,10.50
2023-04-09T22:21:31.741Z,16.00
2023-04-09T22:23:59.923Z,11.60
2023-04-09T22:26:28.222Z,19.30
2023-04-09T22:28:56.691Z,16.30
2023-04-09T22:31:28.563Z,13.60
2023-04-09T22:34:19.224Z,19.90
2023-04-09T22:36:50.862Z,17.80
2023-04-09T22:39:18.934Z,15.00
2023-04-09T22:41:47.271Z,11.00
2023-04-09T22:44:15.558Z,16.60
2023-04-09T22:46:43.829Z,19.50
2023-04-09T22:49:12.383Z,18.40
2023-04-09T22:51:41.658Z,16.60
2023-04-09T22:54:10.528Z,18.10
2023-04-09T22:56:38.688Z,12.80
2023-04-09T22:59:06.845Z,18.70
2023-04-09T23:01:35.233Z,11.60
2023-04-09T23:04:03.558Z,16.20
2023-04-09T23:06:32.092Z,16.70
2023-04-09T23:09:00.577Z,8.10
2023-04-09T23:11:29.005Z,10.00
2023-04-09T23:13:57.146Z,12.80
2023-04-09T23:16:26.455Z,10.80
2023-04-09T23:18:54.894Z,15.90
2023-04-09T23:21:23.173Z,13.10
2023-04-09T23:23:51.463Z,8.90
2023-04-09T23:26:19.735Z,14.80
2023-04-09T23:28:47.887Z,17.40
2023-04-09T23:31:16.345Z,14.50
2023-04-09T23:33:44.458Z,19.90
2023-04-09T23:36:12.548Z,19.40
2023-04-09T23:38:43.637Z,18.40
2023-04-09T23:41:14.290Z,18.00
2023-04-09T23:43:46.100Z,19.30
2023-04-09T23:46:14.302Z,18.40
2023-04-09T23:48:42.421Z,13.40
2023-04-09T23:51:17.485Z,10.60
2023-04-09T23:53:45.845Z,15.70
2023-04-09T23:56:14.634Z,13.10
2023-04-09T23:58:43.328Z,19.50
